Terminal Aerodrome Forecast
Issued by NWS La Crosse, WI

Home | Current Version | Previous Version | Text Only | Print | Product List | Glossary On
Versions: 1 2 3 4 5 6 7 8 9 10 11 12 13 14 15 16 17 18 19 20 21 22 23 24 25 26
000
FTUS43 KARX 240520
TAFLSE
TAF
KLSE 240520Z 2406/2506 17005KT P6SM BKN120
     FM241200 19007KT P6SM BKN040
     FM241700 24008KT P6SM BKN050
     FM250100 VRB04KT P6SM SCT060=

USA.gov is the U.S. government's official web portal to all federal, state and local government web resources and services.